sensor_id;sensor_type;location;lat;lon;timestamp;P1;durP1;ratioP1;P2;durP2;ratioP2
21663;SDS011;10993;52.510;13.456;2023-09-07T00:01:06;8.37;;;4.77;;
21663;SDS011;10993;52.510;13.456;2023-09-07T00:06:08;8.27;;;4.50;;
21663;SDS011;10993;52.510;13.456;2023-09-07T00:11:09;6.70;;;4.53;;
21663;SDS011;10993;52.510;13.456;2023-09-07T00:16:10;11.73;;;4.53;;
21663;SDS011;10993;52.510;13.456;2023-09-07T00:21:11;7.95;;;4.80;;
21663;SDS011;10993;52.510;13.456;2023-09-07T00:26:12;8.60;;;5.15;;
21663;SDS011;10993;52.510;13.456;2023-09-07T00:31:12;9.13;;;5.37;;
21663;SDS011;10993;52.510;13.456;2023-09-07T00:36:14;6.22;;;4.30;;
21663;SDS011;10993;52.510;13.456;2023-09-07T00:41:14;8.77;;;5.18;;
21663;SDS011;10993;52.510;13.456;2023-09-07T00:46:15;7.15;;;4.60;;
21663;SDS011;10993;52.510;13.456;2023-09-07T00:51:17;8.65;;;4.88;;
21663;SDS011;10993;52.510;13.456;2023-09-07T00:56:17;8.23;;;4.63;;
21663;SDS011;10993;52.510;13.456;2023-09-07T01:01:18;7.80;;;5.15;;
21663;SDS011;10993;52.510;13.456;2023-09-07T01:06:22;9.90;;;5.22;;
21663;SDS011;10993;52.510;13.456;2023-09-07T01:11:26;9.00;;;4.95;;
21663;SDS011;10993;52.510;13.456;2023-09-07T01:16:35;7.88;;;4.82;;
21663;SDS011;10993;52.510;13.456;2023-09-07T01:21:39;8.30;;;5.10;;
21663;SDS011;10993;52.510;13.456;2023-09-07T01:26:39;8.73;;;4.90;;
21663;SDS011;10993;52.510;13.456;2023-09-07T01:31:40;11.13;;;5.18;;
21663;SDS011;10993;52.510;13.456;2023-09-07T01:36:42;12.43;;;5.03;;
21663;SDS011;10993;52.510;13.456;2023-09-07T01:41:42;9.35;;;4.88;;
21663;SDS011;10993;52.510;13.456;2023-09-07T01:46:43;10.30;;;5.18;;
21663;SDS011;10993;52.510;13.456;2023-09-07T01:51:44;8.88;;;5.03;;
21663;SDS011;10993;52.510;13.456;2023-09-07T01:56:45;7.28;;;5.18;;
21663;SDS011;10993;52.510;13.456;2023-09-07T02:01:45;6.80;;;4.88;;
21663;SDS011;10993;52.510;13.456;2023-09-07T02:06:47;7.80;;;5.23;;
21663;SDS011;10993;52.510;13.456;2023-09-07T02:11:47;8.30;;;5.35;;
21663;SDS011;10993;52.510;13.456;2023-09-07T02:16:48;8.32;;;5.30;;
21663;SDS011;10993;52.510;13.456;2023-09-07T02:21:49;8.55;;;4.85;;
21663;SDS011;10993;52.510;13.456;2023-09-07T02:26:51;13.57;;;5.88;;
21663;SDS011;10993;52.510;13.456;2023-09-07T02:31:51;10.20;;;5.20;;
21663;SDS011;10993;52.510;13.456;2023-09-07T02:36:53;6.80;;;5.10;;
21663;SDS011;10993;52.510;13.456;2023-09-07T02:41:53;8.18;;;5.40;;
21663;SDS011;10993;52.510;13.456;2023-09-07T02:46:54;8.37;;;5.33;;
21663;SDS011;10993;52.510;13.456;2023-09-07T02:51:55;7.07;;;4.82;;
21663;SDS011;10993;52.510;13.456;2023-09-07T02:56:56;7.95;;;4.80;;
21663;SDS011;10993;52.510;13.456;2023-09-07T03:01:56;10.00;;;4.83;;
21663;SDS011;10993;52.510;13.456;2023-09-07T03:06:58;8.13;;;4.63;;
21663;SDS011;10993;52.510;13.456;2023-09-07T03:12:00;7.47;;;4.95;;
21663;SDS011;10993;52.510;13.456;2023-09-07T03:17:01;7.13;;;5.10;;
21663;SDS011;10993;52.510;13.456;2023-09-07T03:22:02;8.57;;;5.30;;
21663;SDS011;10993;52.510;13.456;2023-09-07T03:27:03;7.82;;;5.32;;
21663;SDS011;10993;52.510;13.456;2023-09-07T03:32:05;9.55;;;5.40;;
21663;SDS011;10993;52.510;13.456;2023-09-07T03:37:07;8.80;;;5.00;;
21663;SDS011;10993;52.510;13.456;2023-09-07T03:42:11;8.82;;;5.63;;
21663;SDS011;10993;52.510;13.456;2023-09-07T03:47:13;9.63;;;5.83;;
21663;SDS011;10993;52.510;13.456;2023-09-07T03:52:15;8.13;;;5.80;;
21663;SDS011;10993;52.510;13.456;2023-09-07T03:57:15;11.23;;;5.57;;
21663;SDS011;10993;52.510;13.456;2023-09-07T04:02:15;9.17;;;6.03;;
21663;SDS011;10993;52.510;13.456;2023-09-07T04:07:20;8.73;;;5.50;;
21663;SDS011;10993;52.510;13.456;2023-09-07T04:12:21;8.88;;;5.63;;
21663;SDS011;10993;52.510;13.456;2023-09-07T04:17:21;8.50;;;6.20;;
21663;SDS011;10993;52.510;13.456;2023-09-07T04:22:23;8.00;;;5.90;;
21663;SDS011;10993;52.510;13.456;2023-09-07T04:27:23;10.70;;;5.47;;
21663;SDS011;10993;52.510;13.456;2023-09-07T04:32:23;8.95;;;5.68;;
21663;SDS011;10993;52.510;13.456;2023-09-07T04:37:25;7.85;;;5.38;;
21663;SDS011;10993;52.510;13.456;2023-09-07T04:42:26;9.27;;;6.45;;
21663;SDS011;10993;52.510;13.456;2023-09-07T04:47:27;9.18;;;5.78;;
21663;SDS011;10993;52.510;13.456;2023-09-07T04:52:28;8.70;;;5.67;;
21663;SDS011;10993;52.510;13.456;2023-09-07T04:57:30;8.68;;;5.50;;
21663;SDS011;10993;52.510;13.456;2023-09-07T05:02:30;10.75;;;5.60;;
21663;SDS011;10993;52.510;13.456;2023-09-07T05:07:32;8.70;;;5.30;;
21663;SDS011;10993;52.510;13.456;2023-09-07T05:12:32;8.98;;;4.63;;
21663;SDS011;10993;52.510;13.456;2023-09-07T05:17:33;8.53;;;5.33;;
21663;SDS011;10993;52.510;13.456;2023-09-07T05:22:35;8.63;;;5.00;;
21663;SDS011;10993;52.510;13.456;2023-09-07T05:27:39;8.68;;;4.60;;
21663;SDS011;10993;52.510;13.456;2023-09-07T05:32:39;9.13;;;4.63;;
21663;SDS011;10993;52.510;13.456;2023-09-07T05:37:42;8.05;;;4.68;;
21663;SDS011;10993;52.510;13.456;2023-09-07T05:42:43;7.57;;;4.65;;
21663;SDS011;10993;52.510;13.456;2023-09-07T05:47:43;7.13;;;4.40;;
21663;SDS011;10993;52.510;13.456;2023-09-07T05:52:45;9.47;;;4.63;;
21663;SDS011;10993;52.510;13.456;2023-09-07T05:57:45;7.60;;;4.72;;
21663;SDS011;10993;52.510;13.456;2023-09-07T06:02:46;12.73;;;4.93;;
21663;SDS011;10993;52.510;13.456;2023-09-07T06:07:48;9.10;;;4.78;;
21663;SDS011;10993;52.510;13.456;2023-09-07T06:12:48;8.35;;;4.95;;
21663;SDS011;10993;52.510;13.456;2023-09-07T06:17:49;8.32;;;4.32;;
21663;SDS011;10993;52.510;13.456;2023-09-07T06:22:51;8.07;;;4.30;;
21663;SDS011;10993;52.510;13.456;2023-09-07T06:27:51;9.60;;;4.97;;
21663;SDS011;10993;52.510;13.456;2023-09-07T06:32:51;8.07;;;4.37;;
21663;SDS011;10993;52.510;13.456;2023-09-07T06:37:54;8.40;;;4.32;;
21663;SDS011;10993;52.510;13.456;2023-09-07T06:42:55;8.55;;;3.83;;
21663;SDS011;10993;52.510;13.456;2023-09-07T06:47:57;7.00;;;3.95;;
21663;SDS011;10993;52.510;13.456;2023-09-07T06:52:58;7.37;;;4.17;;
21663;SDS011;10993;52.510;13.456;2023-09-07T06:57:59;7.47;;;4.30;;
21663;SDS011;10993;52.510;13.456;2023-09-07T07:03:01;8.10;;;3.97;;
21663;SDS011;10993;52.510;13.456;2023-09-07T07:08:03;6.55;;;4.47;;
21663;SDS011;10993;52.510;13.456;2023-09-07T07:13:03;7.85;;;4.68;;
21663;SDS011;10993;52.510;13.456;2023-09-07T07:18:04;8.10;;;4.20;;
21663;SDS011;10993;52.510;13.456;2023-09-07T07:23:12;6.18;;;3.92;;
21663;SDS011;10993;52.510;13.456;2023-09-07T07:28:12;5.32;;;3.97;;
21663;SDS011;10993;52.510;13.456;2023-09-07T07:33:13;6.67;;;4.17;;
21663;SDS011;10993;52.510;13.456;2023-09-07T07:38:15;7.43;;;3.50;;
21663;SDS011;10993;52.510;13.456;2023-09-07T07:43:15;6.60;;;3.78;;
21663;SDS011;10993;52.510;13.456;2023-09-07T07:48:16;5.97;;;3.92;;
21663;SDS011;10993;52.510;13.456;2023-09-07T07:53:17;7.43;;;4.20;;
21663;SDS011;10993;52.510;13.456;2023-09-07T07:58:17;7.25;;;3.80;;
21663;SDS011;10993;52.510;13.456;2023-09-07T08:03:18;6.35;;;4.15;;
21663;SDS011;10993;52.510;13.456;2023-09-07T08:08:20;7.30;;;3.67;;
21663;SDS011;10993;52.510;13.456;2023-09-07T08:13:21;6.75;;;3.70;;
21663;SDS011;10993;52.510;13.456;2023-09-07T08:18:22;8.30;;;3.30;;
21663;SDS011;10993;52.510;13.456;2023-09-07T08:23:25;7.20;;;3.78;;
21663;SDS011;10993;52.510;13.456;2023-09-07T08:28:25;7.53;;;3.35;;
21663;SDS011;10993;52.510;13.456;2023-09-07T08:33:27;5.65;;;3.35;;
21663;SDS011;10993;52.510;13.456;2023-09-07T08:38:30;6.93;;;3.40;;
21663;SDS011;10993;52.510;13.456;2023-09-07T08:43:32;5.95;;;3.30;;
21663;SDS011;10993;52.510;13.456;2023-09-07T08:48:33;4.68;;;3.10;;
21663;SDS011;10993;52.510;13.456;2023-09-07T08:53:37;5.65;;;3.35;;
21663;SDS011;10993;52.510;13.456;2023-09-07T08:58:39;4.95;;;3.13;;
21663;SDS011;10993;52.510;13.456;2023-09-07T09:03:40;4.55;;;3.00;;
21663;SDS011;10993;52.510;13.456;2023-09-07T09:08:44;5.05;;;3.08;;
21663;SDS011;10993;52.510;13.456;2023-09-07T09:13:45;6.22;;;3.03;;
21663;SDS011;10993;52.510;13.456;2023-09-07T09:18:48;7.13;;;3.30;;
21663;SDS011;10993;52.510;13.456;2023-09-07T09:23:53;5.60;;;2.83;;
21663;SDS011;10993;52.510;13.456;2023-09-07T09:28:55;9.15;;;3.70;;
21663;SDS011;10993;52.510;13.456;2023-09-07T09:33:55;5.45;;;3.05;;
21663;SDS011;10993;52.510;13.456;2023-09-07T09:38:58;5.70;;;2.80;;
21663;SDS011;10993;52.510;13.456;2023-09-07T09:43:58;6.82;;;3.20;;
21663;SDS011;10993;52.510;13.456;2023-09-07T09:49:00;4.55;;;3.13;;
21663;SDS011;10993;52.510;13.456;2023-09-07T09:54:02;4.75;;;2.70;;
21663;SDS011;10993;52.510;13.456;2023-09-07T09:59:03;5.30;;;2.80;;
21663;SDS011;10993;52.510;13.456;2023-09-07T10:04:04;7.60;;;3.03;;
21663;SDS011;10993;52.510;13.456;2023-09-07T10:09:06;5.15;;;2.75;;
21663;SDS011;10993;52.510;13.456;2023-09-07T10:14:07;3.90;;;2.30;;
21663;SDS011;10993;52.510;13.456;2023-09-07T10:19:13;4.30;;;2.60;;
21663;SDS011;10993;52.510;13.456;2023-09-07T10:24:25;7.20;;;2.88;;
21663;SDS011;10993;52.510;13.456;2023-09-07T10:29:27;5.60;;;2.50;;
21663;SDS011;10993;52.510;13.456;2023-09-07T10:34:34;6.05;;;3.10;;
21663;SDS011;10993;52.510;13.456;2023-09-07T10:39:36;4.20;;;2.70;;
21663;SDS011;10993;52.510;13.456;2023-09-07T10:44:38;5.80;;;2.53;;
21663;SDS011;10993;52.510;13.456;2023-09-07T10:49:39;4.47;;;2.30;;
21663;SDS011;10993;52.510;13.456;2023-09-07T10:54:40;3.53;;;2.30;;
21663;SDS011;10993;52.510;13.456;2023-09-07T10:59:44;4.20;;;2.53;;
21663;SDS011;10993;52.510;13.456;2023-09-07T11:04:44;5.20;;;2.17;;
21663;SDS011;10993;52.510;13.456;2023-09-07T11:09:46;4.40;;;2.50;;
21663;SDS011;10993;52.510;13.456;2023-09-07T11:14:51;5.65;;;2.60;;
21663;SDS011;10993;52.510;13.456;2023-09-07T11:19:54;4.75;;;2.70;;
21663;SDS011;10993;52.510;13.456;2023-09-07T11:24:56;3.85;;;2.40;;
21663;SDS011;10993;52.510;13.456;2023-09-07T11:29:57;3.25;;;2.05;;
21663;SDS011;10993;52.510;13.456;2023-09-07T11:34:58;5.47;;;2.28;;
21663;SDS011;10993;52.510;13.456;2023-09-07T11:39:59;4.00;;;2.30;;
21663;SDS011;10993;52.510;13.456;2023-09-07T11:45:00;3.80;;;2.30;;
21663;SDS011;10993;52.510;13.456;2023-09-07T11:50:00;4.70;;;2.23;;
21663;SDS011;10993;52.510;13.456;2023-09-07T11:55:02;3.97;;;2.23;;
21663;SDS011;10993;52.510;13.456;2023-09-07T12:00:03;5.15;;;2.47;;
21663;SDS011;10993;52.510;13.456;2023-09-07T12:05:05;4.68;;;2.30;;
21663;SDS011;10993;52.510;13.456;2023-09-07T12:10:09;6.78;;;2.45;;
21663;SDS011;10993;52.510;13.456;2023-09-07T12:15:13;4.78;;;2.65;;
21663;SDS011;10993;52.510;13.456;2023-09-07T12:20:13;5.05;;;2.47;;
21663;SDS011;10993;52.510;13.456;2023-09-07T12:25:15;3.55;;;2.20;;
21663;SDS011;10993;52.510;13.456;2023-09-07T12:30:18;5.38;;;2.20;;
21663;SDS011;10993;52.510;13.456;2023-09-07T12:35:20;4.72;;;2.17;;
21663;SDS011;10993;52.510;13.456;2023-09-07T12:40:22;4.60;;;2.42;;
21663;SDS011;10993;52.510;13.456;2023-09-07T12:45:22;4.15;;;2.38;;
21663;SDS011;10993;52.510;13.456;2023-09-07T12:50:23;4.47;;;2.40;;
21663;SDS011;10993;52.510;13.456;2023-09-07T12:55:24;7.03;;;2.80;;
21663;SDS011;10993;52.510;13.456;2023-09-07T13:00:25;4.15;;;2.60;;
21663;SDS011;10993;52.510;13.456;2023-09-07T13:05:25;5.22;;;2.88;;
21663;SDS011;10993;52.510;13.456;2023-09-07T13:10:27;4.57;;;2.87;;
21663;SDS011;10993;52.510;13.456;2023-09-07T13:15:27;4.88;;;2.47;;
21663;SDS011;10993;52.510;13.456;2023-09-07T13:20:28;5.78;;;3.10;;
21663;SDS011;10993;52.510;13.456;2023-09-07T13:25:29;4.23;;;2.70;;
21663;SDS011;10993;52.510;13.456;2023-09-07T13:30:30;7.97;;;2.50;;
21663;SDS011;10993;52.510;13.456;2023-09-07T13:35:30;6.37;;;2.87;;
21663;SDS011;10993;52.510;13.456;2023-09-07T13:40:32;4.33;;;2.77;;
21663;SDS011;10993;52.510;13.456;2023-09-07T13:45:32;4.15;;;2.50;;
21663;SDS011;10993;52.510;13.456;2023-09-07T13:50:33;6.25;;;2.75;;
21663;SDS011;10993;52.510;13.456;2023-09-07T13:55:34;4.33;;;2.90;;
21663;SDS011;10993;52.510;13.456;2023-09-07T14:00:35;5.38;;;2.92;;
21663;SDS011;10993;52.510;13.456;2023-09-07T14:05:35;5.23;;;2.80;;
21663;SDS011;10993;52.510;13.456;2023-09-07T14:10:37;5.87;;;2.90;;
21663;SDS011;10993;52.510;13.456;2023-09-07T14:15:37;4.25;;;2.80;;
21663;SDS011;10993;52.510;13.456;2023-09-07T14:20:37;4.37;;;2.83;;
21663;SDS011;10993;52.510;13.456;2023-09-07T14:25:39;6.37;;;2.80;;
21663;SDS011;10993;52.510;13.456;2023-09-07T14:30:41;5.70;;;2.70;;
21663;SDS011;10993;52.510;13.456;2023-09-07T14:35:42;6.53;;;2.85;;
21663;SDS011;10993;52.510;13.456;2023-09-07T14:40:44;5.47;;;3.30;;
21663;SDS011;10993;52.510;13.456;2023-09-07T14:45:45;4.93;;;3.15;;
21663;SDS011;10993;52.510;13.456;2023-09-07T14:50:46;4.88;;;2.75;;
21663;SDS011;10993;52.510;13.456;2023-09-07T14:55:47;4.53;;;2.85;;
21663;SDS011;10993;52.510;13.456;2023-09-07T15:00:48;5.68;;;2.80;;
21663;SDS011;10993;52.510;13.456;2023-09-07T15:05:48;7.90;;;3.07;;
21663;SDS011;10993;52.510;13.456;2023-09-07T15:10:50;5.15;;;3.10;;
21663;SDS011;10993;52.510;13.456;2023-09-07T15:15:50;5.55;;;2.90;;
21663;SDS011;10993;52.510;13.456;2023-09-07T15:20:51;6.17;;;3.27;;
21663;SDS011;10993;52.510;13.456;2023-09-07T15:25:53;5.10;;;3.42;;
21663;SDS011;10993;52.510;13.456;2023-09-07T15:30:53;5.53;;;3.47;;
21663;SDS011;10993;52.510;13.456;2023-09-07T15:35:53;6.67;;;3.40;;
21663;SDS011;10993;52.510;13.456;2023-09-07T15:40:55;5.82;;;3.40;;
21663;SDS011;10993;52.510;13.456;2023-09-07T15:45:56;6.78;;;3.10;;
21663;SDS011;10993;52.510;13.456;2023-09-07T15:50:57;7.00;;;3.22;;
21663;SDS011;10993;52.510;13.456;2023-09-07T15:55:59;6.30;;;3.23;;
21663;SDS011;10993;52.510;13.456;2023-09-07T16:00:59;5.35;;;2.72;;
21663;SDS011;10993;52.510;13.456;2023-09-07T16:06:01;5.70;;;2.80;;
21663;SDS011;10993;52.510;13.456;2023-09-07T16:11:03;9.40;;;3.72;;
21663;SDS011;10993;52.510;13.456;2023-09-07T16:16:03;5.65;;;3.30;;
21663;SDS011;10993;52.510;13.456;2023-09-07T16:21:04;5.85;;;3.47;;
21663;SDS011;10993;52.510;13.456;2023-09-07T16:26:11;5.43;;;3.30;;
21663;SDS011;10993;52.510;13.456;2023-09-07T16:31:11;7.20;;;3.80;;
21663;SDS011;10993;52.510;13.456;2023-09-07T16:36:12;5.65;;;3.25;;
21663;SDS011;10993;52.510;13.456;2023-09-07T16:41:13;6.65;;;3.60;;
21663;SDS011;10993;52.510;13.456;2023-09-07T16:46:14;6.55;;;3.60;;
21663;SDS011;10993;52.510;13.456;2023-09-07T16:51:14;7.10;;;3.75;;
21663;SDS011;10993;52.510;13.456;2023-09-07T16:56:16;6.90;;;3.97;;
21663;SDS011;10993;52.510;13.456;2023-09-07T17:01:17;8.25;;;4.20;;
21663;SDS011;10993;52.510;13.456;2023-09-07T17:06:17;7.33;;;4.00;;
21663;SDS011;10993;52.510;13.456;2023-09-07T17:11:19;6.20;;;3.07;;
21663;SDS011;10993;52.510;13.456;2023-09-07T17:16:19;7.32;;;3.72;;
21663;SDS011;10993;52.510;13.456;2023-09-07T17:21:19;7.63;;;4.00;;
21663;SDS011;10993;52.510;13.456;2023-09-07T17:26:21;7.20;;;4.10;;
21663;SDS011;10993;52.510;13.456;2023-09-07T17:31:21;8.18;;;4.25;;
21663;SDS011;10993;52.510;13.456;2023-09-07T17:36:24;7.22;;;4.20;;
21663;SDS011;10993;52.510;13.456;2023-09-07T17:41:26;6.57;;;4.07;;
21663;SDS011;10993;52.510;13.456;2023-09-07T17:46:28;7.68;;;4.50;;
21663;SDS011;10993;52.510;13.456;2023-09-07T17:51:30;7.03;;;4.28;;
21663;SDS011;10993;52.510;13.456;2023-09-07T17:56:31;7.33;;;4.63;;
21663;SDS011;10993;52.510;13.456;2023-09-07T18:01:31;8.48;;;5.30;;
21663;SDS011;10993;52.510;13.456;2023-09-07T18:06:32;8.45;;;4.53;;
21663;SDS011;10993;52.510;13.456;2023-09-07T18:11:35;9.98;;;4.75;;
21663;SDS011;10993;52.510;13.456;2023-09-07T18:16:35;8.38;;;4.65;;
21663;SDS011;10993;52.510;13.456;2023-09-07T18:21:36;9.23;;;5.22;;
21663;SDS011;10993;52.510;13.456;2023-09-07T18:26:38;9.30;;;5.60;;
21663;SDS011;10993;52.510;13.456;2023-09-07T18:31:38;10.45;;;5.63;;
21663;SDS011;10993;52.510;13.456;2023-09-07T18:36:38;10.97;;;6.17;;
21663;SDS011;10993;52.510;13.456;2023-09-07T18:41:40;10.63;;;5.10;;
21663;SDS011;10993;52.510;13.456;2023-09-07T18:46:40;11.18;;;6.05;;
21663;SDS011;10993;52.510;13.456;2023-09-07T18:51:41;10.45;;;5.75;;
21663;SDS011;10993;52.510;13.456;2023-09-07T18:56:43;12.73;;;6.40;;
21663;SDS011;10993;52.510;13.456;2023-09-07T19:01:43;9.95;;;5.63;;
21663;SDS011;10993;52.510;13.456;2023-09-07T19:06:44;11.43;;;5.28;;
21663;SDS011;10993;52.510;13.456;2023-09-07T19:11:46;7.88;;;5.20;;
21663;SDS011;10993;52.510;13.456;2023-09-07T19:16:47;7.68;;;4.90;;
21663;SDS011;10993;52.510;13.456;2023-09-07T19:21:47;8.07;;;4.77;;
21663;SDS011;10993;52.510;13.456;2023-09-07T19:26:49;6.70;;;4.53;;
21663;SDS011;10993;52.510;13.456;2023-09-07T19:31:50;8.15;;;4.82;;
21663;SDS011;10993;52.510;13.456;2023-09-07T19:36:51;9.20;;;4.18;;
21663;SDS011;10993;52.510;13.456;2023-09-07T19:41:53;6.38;;;4.15;;
21663;SDS011;10993;52.510;13.456;2023-09-07T19:46:53;10.57;;;5.10;;
21663;SDS011;10993;52.510;13.456;2023-09-07T19:51:55;11.95;;;5.32;;
21663;SDS011;10993;52.510;13.456;2023-09-07T19:56:57;8.73;;;5.32;;
21663;SDS011;10993;52.510;13.456;2023-09-07T20:01:58;7.70;;;5.22;;
21663;SDS011;10993;52.510;13.456;2023-09-07T20:07:01;10.82;;;4.88;;
21663;SDS011;10993;52.510;13.456;2023-09-07T20:12:05;7.63;;;4.53;;
21663;SDS011;10993;52.510;13.456;2023-09-07T20:17:06;7.70;;;4.78;;
21663;SDS011;10993;52.510;13.456;2023-09-07T20:22:06;9.18;;;5.35;;
21663;SDS011;10993;52.510;13.456;2023-09-07T20:27:08;7.03;;;4.70;;
21663;SDS011;10993;52.510;13.456;2023-09-07T20:32:08;10.07;;;4.80;;
21663;SDS011;10993;52.510;13.456;2023-09-07T20:37:09;9.00;;;5.18;;
21663;SDS011;10993;52.510;13.456;2023-09-07T20:42:11;6.70;;;4.47;;
21663;SDS011;10993;52.510;13.456;2023-09-07T20:47:12;9.10;;;5.07;;
21663;SDS011;10993;52.510;13.456;2023-09-07T20:52:13;8.37;;;4.83;;
21663;SDS011;10993;52.510;13.456;2023-09-07T20:57:14;7.20;;;4.65;;
21663;SDS011;10993;52.510;13.456;2023-09-07T21:02:14;9.63;;;5.03;;
21663;SDS011;10993;52.510;13.456;2023-09-07T21:07:15;8.13;;;4.82;;
21663;SDS011;10993;52.510;13.456;2023-09-07T21:12:16;8.93;;;5.20;;
21663;SDS011;10993;52.510;13.456;2023-09-07T21:17:17;10.13;;;5.10;;
21663;SDS011;10993;52.510;13.456;2023-09-07T21:22:17;8.70;;;4.75;;
21663;SDS011;10993;52.510;13.456;2023-09-07T21:27:19;8.25;;;4.97;;
21663;SDS011;10993;52.510;13.456;2023-09-07T21:32:19;8.30;;;5.20;;
21663;SDS011;10993;52.510;13.456;2023-09-07T21:37:20;9.33;;;5.20;;
21663;SDS011;10993;52.510;13.456;2023-09-07T21:42:22;14.43;;;5.97;;
21663;SDS011;10993;52.510;13.456;2023-09-07T21:47:22;11.10;;;5.53;;
21663;SDS011;10993;52.510;13.456;2023-09-07T21:52:23;9.45;;;5.47;;
21663;SDS011;10993;52.510;13.456;2023-09-07T21:57:25;8.23;;;5.47;;
21663;SDS011;10993;52.510;13.456;2023-09-07T22:02:26;8.73;;;5.68;;
21663;SDS011;10993;52.510;13.456;2023-09-07T22:07:26;9.65;;;5.28;;
21663;SDS011;10993;52.510;13.456;2023-09-07T22:12:28;8.37;;;5.47;;
21663;SDS011;10993;52.510;13.456;2023-09-07T22:17:28;9.25;;;5.32;;
21663;SDS011;10993;52.510;13.456;2023-09-07T22:22:28;9.80;;;5.80;;
21663;SDS011;10993;52.510;13.456;2023-09-07T22:27:30;9.07;;;5.60;;
21663;SDS011;10993;52.510;13.456;2023-09-07T22:32:31;9.70;;;5.55;;
21663;SDS011;10993;52.510;13.456;2023-09-07T22:37:31;9.57;;;5.03;;
21663;SDS011;10993;52.510;13.456;2023-09-07T22:42:32;7.83;;;5.10;;
21663;SDS011;10993;52.510;13.456;2023-09-07T22:47:33;9.85;;;6.18;;
21663;SDS011;10993;52.510;13.456;2023-09-07T22:52:33;9.02;;;5.85;;
21663;SDS011;10993;52.510;13.456;2023-09-07T22:57:35;8.13;;;5.32;;
21663;SDS011;10993;52.510;13.456;2023-09-07T23:02:36;7.55;;;5.45;;
21663;SDS011;10993;52.510;13.456;2023-09-07T23:07:37;12.53;;;5.77;;
21663;SDS011;10993;52.510;13.456;2023-09-07T23:12:38;8.85;;;5.35;;
21663;SDS011;10993;52.510;13.456;2023-09-07T23:17:39;7.90;;;5.95;;
21663;SDS011;10993;52.510;13.456;2023-09-07T23:22:39;10.37;;;6.07;;
21663;SDS011;10993;52.510;13.456;2023-09-07T23:27:41;10.07;;;5.80;;
21663;SDS011;10993;52.510;13.456;2023-09-07T23:32:41;11.52;;;5.80;;
21663;SDS011;10993;52.510;13.456;2023-09-07T23:37:42;7.40;;;5.57;;
21663;SDS011;10993;52.510;13.456;2023-09-07T23:42:44;9.10;;;5.85;;
21663;SDS011;10993;52.510;13.456;2023-09-07T23:47:44;8.00;;;6.07;;
21663;SDS011;10993;52.510;13.456;2023-09-07T23:52:44;12.83;;;6.57;;
21663;SDS011;10993;52.510;13.456;2023-09-07T23:57:46;8.77;;;6.17;;
